< Cyclone 200306 2003 Season Cyclone 200308 >
Cyclone 200307 (INIGO)
General InformationTrack Information on Google MapsDetailed Wind InformationList of All Images || ResourceGoogle EarthGE AnimationAtom FeedGeoJSON
Detalied Best Track (Time Zone = UTC)
Year Month Day Hour Lat. Long. Pressure (hPa) Wind (kt) Class Image Chart
2003 3 31 00 -7.6 124.0 1006 20 2 Image --
2003 3 31 06 -8.2 123.0 1004 20 2 Image --
2003 3 31 12 -8.5 122.3 1004 20 2 Image --
2003 3 31 18 -8.7 121.9 1002 20 2 Image --
2003 4 1 00 -9.0 121.5 1000 25 2 Image --
2003 4 1 06 -9.5 121.0 994 35 3 Image --
2003 4 1 12 -9.9 120.3 995 35 3 Image --
2003 4 1 18 -10.2 119.8 992 40 3 Image --
2003 4 2 00 -10.6 119.5 990 45 3 Image --
2003 4 2 06 -11.0 119.0 985 55 4 Image --
2003 4 2 12 -11.2 118.6 975 60 4 Image --
2003 4 2 18 -11.3 118.4 965 65 5 Image --
2003 4 3 00 -11.7 118.0 960 75 5 Image --
2003 4 3 06 -11.8 117.5 950 85 5 Image --
2003 4 3 12 -12.0 117.0 935 100 5 Image --
2003 4 3 18 -12.3 116.4 920 110 5 Image --
2003 4 4 00 -12.5 115.8 910 120 5 Image --
2003 4 4 06 -13.0 115.2 900 130 5 Image --
2003 4 4 12 -13.5 114.5 900 130 5 Image --
2003 4 4 18 -13.9 114.0 905 125 5 Image --
2003 4 5 00 -14.2 113.6 910 120 5 Image --
2003 4 5 06 -14.3 113.2 915 115 5 Image --
2003 4 5 12 -14.5 113.0 925 105 5 Image --
2003 4 5 18 -14.7 112.9 935 95 5 Image --
2003 4 6 00 -14.9 112.8 945 90 5 Image --
2003 4 6 06 -15.2 112.7 950 85 5 Image --
2003 4 6 12 -15.5 112.9 955 80 5 Image --
2003 4 6 18 -15.9 113.2 960 75 5 Image --
2003 4 7 00 -16.5 113.5 970 70 5 Image --
2003 4 7 06 -17.4 113.9 980 60 4 Image --
2003 4 7 12 -18.2 114.4 988 50 4 Image --
2003 4 7 18 -19.0 114.9 992 40 3 Image --
2003 4 7 21 -19.4 115.1 992 35 3 Image --
2003 4 8 00 -19.9 115.3 995 35 3 Image --
2003 4 8 03 -20.5 115.6 997 33 2 Image --
2003 4 8 06 -21.0 116.0 997 33 2 Image --
2003 4 8 09 -21.4 116.5 1000 25 2 Image --
< Cyclone 200306 2003 Season Cyclone 200308 >

Help